createdAt,value
2022-12-03T00:00:58.182Z,102044.34
2022-12-03T00:03:26.099Z,102037.66
2022-12-03T00:05:54.077Z,102040.09
2022-12-03T00:08:21.872Z,102037.81
2022-12-03T00:10:49.714Z,102040.69
2022-12-03T00:13:17.519Z,102035.53
2022-12-03T00:15:46.981Z,102033.22
2022-12-03T00:18:15.037Z,102035.63
2022-12-03T00:20:42.912Z,102036.31
2022-12-03T00:23:10.736Z,102030.50
2022-12-03T00:25:38.601Z,102038.31
2022-12-03T00:28:06.395Z,102040.81
2022-12-03T00:30:34.265Z,102038.34
2022-12-03T00:33:03.481Z,102038.38
2022-12-03T00:35:31.462Z,102039.13
2022-12-03T00:37:59.237Z,102035.72
2022-12-03T00:40:27.100Z,102032.44
2022-12-03T00:42:54.869Z,102035.72
2022-12-03T00:45:22.801Z,102036.53
2022-12-03T00:47:50.577Z,102029.75
2022-12-03T00:50:19.868Z,102029.13
2022-12-03T00:52:47.726Z,102027.47
2022-12-03T00:55:15.614Z,102027.22
2022-12-03T00:57:43.623Z,102031.81
2022-12-03T01:00:12.814Z,102034.22
2022-12-03T01:02:40.741Z,102022.78
2022-12-03T01:05:09.464Z,102029.47
2022-12-03T01:07:38.961Z,102034.09
2022-12-03T01:10:08.346Z,102029.59
2022-12-03T01:12:36.380Z,102034.78
2022-12-03T01:15:04.970Z,102028.06
2022-12-03T01:17:32.864Z,102043.94
2022-12-03T01:20:02.324Z,102037.19
2022-12-03T01:22:30.124Z,102033.91
2022-12-03T01:24:59.360Z,102032.72
2022-12-03T01:27:27.160Z,102025.16
2022-12-03T01:29:55.505Z,102027.81
2022-12-03T01:32:22.400Z,102033.03
2022-12-03T01:34:51.800Z,102032.19
2022-12-03T01:37:21.392Z,102030.50
2022-12-03T01:39:49.378Z,102028.75
2022-12-03T01:42:19.931Z,102029.69
2022-12-03T01:44:48.061Z,102028.63
2022-12-03T01:47:18.233Z,102028.69
2022-12-03T01:49:49.399Z,102025.47
2022-12-03T01:52:18.634Z,102022.16
2022-12-03T01:54:48.739Z,102025.34
2022-12-03T01:57:26.517Z,102024.50
2022-12-03T01:59:55.350Z,102018.53
2022-12-03T02:02:25.368Z,102019.22
2022-12-03T02:04:54.630Z,102021.75
2022-12-03T02:07:26.066Z,102017.72
2022-12-03T02:09:55.810Z,102024.31
2022-12-03T02:12:28.979Z,102020.81
2022-12-03T02:14:57.255Z,102021.13
2022-12-03T02:17:25.187Z,102019.34
2022-12-03T02:19:53.550Z,102019.22
2022-12-03T02:22:32.883Z,102021.13
2022-12-03T02:25:12.674Z,102026.13
2022-12-03T02:27:41.311Z,102022.88
2022-12-03T02:30:10.239Z,102023.88
2022-12-03T02:32:38.721Z,102022.19
2022-12-03T02:35:07.858Z,102015.78
2022-12-03T02:37:37.055Z,102016.94
2022-12-03T02:40:08.242Z,102017.38
2022-12-03T02:42:36.621Z,102020.84
2022-12-03T02:45:07.769Z,102020.25
2022-12-03T02:47:37.073Z,102023.03
2022-12-03T02:50:05.765Z,102020.47
2022-12-03T02:52:33.659Z,102018.78
2022-12-03T02:55:02.935Z,102018.72
2022-12-03T02:57:30.833Z,102024.53
2022-12-03T03:00:00.039Z,102018.56
2022-12-03T03:02:28.184Z,102017.88
2022-12-03T03:04:56.623Z,102019.31
2022-12-03T03:07:24.535Z,102022.72
2022-12-03T03:09:52.550Z,102018.63
2022-12-03T03:12:20.438Z,102009.09
2022-12-03T03:14:48.268Z,102017.81
2022-12-03T03:17:17.793Z,102013.34
2022-12-03T03:19:45.660Z,102009.94
2022-12-03T03:22:13.655Z,102011.75
2022-12-03T03:24:41.448Z,102005.22
2022-12-03T03:27:09.329Z,102011.69
2022-12-03T03:29:37.388Z,102002.69
2022-12-03T03:32:05.729Z,102000.41
2022-12-03T03:34:35.724Z,101999.81
2022-12-03T03:37:03.564Z,102010.16
2022-12-03T03:39:31.393Z,101997.81
2022-12-03T03:41:59.555Z,101995.88
2022-12-03T03:44:28.181Z,102000.94
2022-12-03T03:46:56.343Z,101993.47
2022-12-03T03:49:24.291Z,101995.28
2022-12-03T03:51:53.832Z,101990.44
2022-12-03T03:54:22.857Z,101983.47
2022-12-03T03:56:50.804Z,101989.91
2022-12-03T03:59:18.874Z,101981.78
2022-12-03T04:01:47.105Z,101987.47
2022-12-03T04:04:18.454Z,101982.00
2022-12-03T04:06:46.561Z,101977.53
2022-12-03T04:09:16.133Z,101977.03
2022-12-03T04:12:01.687Z,101977.13
2022-12-03T04:14:29.578Z,101975.94
2022-12-03T04:16:57.413Z,101971.19
2022-12-03T04:19:25.320Z,101967.31
2022-12-03T04:22:10.726Z,101972.56
2022-12-03T04:24:39.881Z,101969.13
2022-12-03T04:27:25.302Z,101970.91
2022-12-03T04:29:53.208Z,101968.41
2022-12-03T04:32:38.759Z,101965.69
2022-12-03T04:35:24.635Z,101971.69
2022-12-03T04:37:52.496Z,101966.66
2022-12-03T04:40:39.511Z,101967.41
2022-12-03T04:43:07.345Z,101961.53
2022-12-03T04:45:35.182Z,101970.97
2022-12-03T04:48:03.424Z,101970.22
2022-12-03T04:50:31.243Z,101969.34
2022-12-03T04:52:59.066Z,101967.03
2022-12-03T04:55:28.242Z,101961.19
2022-12-03T04:57:56.400Z,101968.31
2022-12-03T05:00:24.349Z,101957.88
2022-12-03T05:02:52.258Z,101960.28
2022-12-03T05:05:20.362Z,101955.00
2022-12-03T05:07:48.170Z,101963.63
2022-12-03T05:10:15.999Z,101951.78
2022-12-03T05:12:45.215Z,101951.13
2022-12-03T05:15:13.101Z,101941.97
2022-12-03T05:17:40.935Z,101950.78
2022-12-03T05:20:28.406Z,101950.19
2022-12-03T05:22:56.755Z,101947.75
2022-12-03T05:25:24.536Z,101946.50
2022-12-03T05:27:53.739Z,101943.06
2022-12-03T05:30:22.491Z,101942.00
2022-12-03T05:32:50.356Z,101945.53
2022-12-03T05:35:18.616Z,101948.19
2022-12-03T05:37:46.451Z,101944.66
2022-12-03T05:40:15.189Z,101944.59
2022-12-03T05:42:53.856Z,101939.50
2022-12-03T05:45:23.961Z,101946.53
2022-12-03T05:47:52.180Z,101940.59
2022-12-03T05:50:20.093Z,101936.22
2022-12-03T05:52:48.528Z,101938.00
2022-12-03T05:55:16.516Z,101945.56
2022-12-03T05:57:44.618Z,101930.03
2022-12-03T06:00:15.911Z,101936.94
2022-12-03T06:02:45.537Z,101936.78
2022-12-03T06:05:14.538Z,101935.19
2022-12-03T06:07:42.899Z,101933.31
2022-12-03T06:10:13.336Z,101935.25
2022-12-03T06:12:41.156Z,101940.84
2022-12-03T06:15:09.788Z,101936.78
2022-12-03T06:17:37.614Z,101945.06
2022-12-03T06:20:08.451Z,101944.25
2022-12-03T06:22:36.258Z,101945.16
2022-12-03T06:25:06.835Z,101944.03
2022-12-03T06:27:35.180Z,101947.66
2022-12-03T06:30:03.116Z,101948.41
2022-12-03T06:32:31.039Z,101943.56
2022-12-03T06:34:58.805Z,101941.84
2022-12-03T06:37:28.078Z,101934.09
2022-12-03T06:39:55.928Z,101935.97
2022-12-03T06:42:23.821Z,101939.66
2022-12-03T06:44:52.150Z,101933.28
2022-12-03T06:47:20.232Z,101935.84
2022-12-03T06:49:48.004Z,101942.06
2022-12-03T06:52:16.002Z,101938.69
2022-12-03T06:54:45.171Z,101939.31
2022-12-03T06:57:13.009Z,101937.16
2022-12-03T06:59:40.836Z,101937.50
2022-12-03T07:02:08.719Z,101925.53
2022-12-03T07:04:36.617Z,101933.34
2022-12-03T07:07:04.466Z,101930.09
2022-12-03T07:09:32.261Z,101930.75
2022-12-03T07:12:01.486Z,101930.94
2022-12-03T07:14:29.296Z,101942.91
2022-12-03T07:16:57.099Z,101940.78
2022-12-03T07:19:30.675Z,101941.84
2022-12-03T07:22:00.106Z,101935.00
2022-12-03T07:24:27.953Z,101936.88
2022-12-03T07:26:55.982Z,101940.47
2022-12-03T07:29:25.398Z,101943.03
2022-12-03T07:31:53.461Z,101944.41
2022-12-03T07:34:21.614Z,101938.84
2022-12-03T07:36:49.470Z,101935.31
2022-12-03T07:39:17.301Z,101933.56
2022-12-03T07:41:45.112Z,101937.72
2022-12-03T07:44:14.730Z,101937.63
2022-12-03T07:46:44.468Z,101936.66
2022-12-03T07:49:13.196Z,101937.66
2022-12-03T07:51:41.232Z,101940.44
2022-12-03T07:54:09.329Z,101935.97
2022-12-03T07:56:37.155Z,101935.91
2022-12-03T07:59:05.010Z,101935.13
2022-12-03T08:01:33.006Z,101936.22
2022-12-03T08:04:02.331Z,101926.75
2022-12-03T08:06:30.157Z,101927.41
2022-12-03T08:08:58.011Z,101926.78
2022-12-03T08:11:25.821Z,101927.78
2022-12-03T08:13:53.694Z,101929.38
2022-12-03T08:16:22.895Z,101922.44
2022-12-03T08:18:51.528Z,101926.88
2022-12-03T08:21:22.364Z,101921.94
2022-12-03T08:23:50.427Z,101916.00
2022-12-03T08:26:23.474Z,101916.09
2022-12-03T08:28:51.541Z,101911.03
2022-12-03T08:31:25.783Z,101910.28
2022-12-03T08:34:22.761Z,101912.72
2022-12-03T08:36:53.598Z,101907.69
2022-12-03T08:39:33.468Z,101919.00
2022-12-03T08:42:28.228Z,101916.28
2022-12-03T08:44:56.764Z,101915.53
2022-12-03T08:47:25.549Z,101919.34
2022-12-03T08:49:57.927Z,101917.53
2022-12-03T08:52:32.841Z,101915.66
2022-12-03T08:55:01.754Z,101920.06
2022-12-03T08:57:30.934Z,101918.56
2022-12-03T09:00:01.854Z,101916.84
2022-12-03T09:02:33.466Z,101908.69
2022-12-03T09:05:07.457Z,101918.53
2022-12-03T09:07:36.786Z,101913.47
2022-12-03T09:10:05.090Z,101911.91
2022-12-03T09:12:32.891Z,101911.94
2022-12-03T09:15:00.802Z,101911.06
2022-12-03T09:17:28.841Z,101905.91
2022-12-03T09:19:57.095Z,101905.84
2022-12-03T09:22:24.874Z,101902.53
2022-12-03T09:24:54.444Z,101887.03
2022-12-03T09:27:22.814Z,101890.41
2022-12-03T09:29:50.726Z,101891.34
2022-12-03T09:32:19.138Z,101894.00
2022-12-03T09:34:47.093Z,101883.63
2022-12-03T09:37:15.172Z,101881.00
2022-12-03T09:39:42.995Z,101886.72
2022-12-03T09:42:12.559Z,101890.09
2022-12-03T09:44:40.471Z,101898.56
2022-12-03T09:47:09.024Z,101883.09
2022-12-03T09:49:38.430Z,101886.31
2022-12-03T09:52:07.333Z,101892.25
2022-12-03T09:54:47.335Z,101884.41
2022-12-03T09:57:18.003Z,101892.34
2022-12-03T09:59:46.183Z,101888.81
2022-12-03T10:02:21.919Z,101876.03
2022-12-03T10:04:50.283Z,101875.22
2022-12-03T10:07:18.132Z,101872.59
2022-12-03T10:09:46.194Z,101869.16
2022-12-03T10:12:16.489Z,101866.69
2022-12-03T10:14:44.391Z,101868.19
2022-12-03T10:17:12.913Z,101868.31
2022-12-03T10:19:42.662Z,101864.03
2022-12-03T10:22:10.565Z,101864.81
2022-12-03T10:24:39.207Z,101858.75
2022-12-03T10:27:24.087Z,101863.84
2022-12-03T10:29:59.588Z,101857.91
2022-12-03T10:32:28.816Z,101854.47
2022-12-03T10:35:09.506Z,101848.41
2022-12-03T10:37:37.650Z,101858.13
2022-12-03T10:40:11.389Z,101851.25
2022-12-03T10:42:42.374Z,101852.19
2022-12-03T10:45:19.050Z,101844.53
2022-12-03T10:48:05.555Z,101848.00
2022-12-03T10:50:34.350Z,101847.69
2022-12-03T10:53:02.164Z,101860.03
2022-12-03T10:55:30.704Z,101846.81
2022-12-03T10:57:59.987Z,101846.13
2022-12-03T11:00:28.168Z,101849.69
2022-12-03T11:02:57.117Z,101847.16
2022-12-03T11:05:27.798Z,101842.06
2022-12-03T11:07:56.091Z,101842.94
2022-12-03T11:10:24.161Z,101830.06
2022-12-03T11:13:29.351Z,101839.53
2022-12-03T11:15:58.876Z,101830.78
2022-12-03T11:19:02.197Z,101822.22
2022-12-03T11:21:30.483Z,101826.44
2022-12-03T11:24:18.290Z,101818.69
2022-12-03T11:27:09.124Z,101815.34
2022-12-03T11:29:48.894Z,101808.44
2022-12-03T11:33:04.893Z,101814.47
2022-12-03T11:36:11.243Z,101812.75
2022-12-03T11:38:57.413Z,101811.84
2022-12-03T11:41:37.146Z,101803.28
2022-12-03T11:44:31.188Z,101804.09
2022-12-03T11:47:02.080Z,101796.38
2022-12-03T11:49:37.391Z,101799.03
2022-12-03T11:52:25.182Z,101797.31
2022-12-03T11:54:55.585Z,101798.16
2022-12-03T11:57:28.835Z,101794.66
2022-12-03T12:00:15.871Z,101801.59
2022-12-03T12:02:44.393Z,101794.72
2022-12-03T12:05:17.040Z,101805.03
2022-12-03T12:07:48.064Z,101797.38
2022-12-03T12:10:17.682Z,101800.00
2022-12-03T12:12:54.387Z,101798.44
2022-12-03T12:15:43.130Z,101798.56
2022-12-03T12:18:36.764Z,101796.88
2022-12-03T12:21:41.976Z,101792.50
2022-12-03T12:24:33.489Z,101787.31
2022-12-03T12:27:04.087Z,101786.47
2022-12-03T12:29:32.009Z,101794.09
2022-12-03T12:32:02.122Z,101778.56
2022-12-03T12:34:30.323Z,101788.06
2022-12-03T12:37:01.053Z,101775.13
2022-12-03T12:39:28.950Z,101779.44
2022-12-03T12:41:59.334Z,101778.47
2022-12-03T12:44:28.513Z,101776.81
2022-12-03T12:47:09.972Z,101772.44
2022-12-03T12:49:37.875Z,101775.78
2022-12-03T12:52:07.058Z,101772.38
2022-12-03T12:54:34.942Z,101768.94
2022-12-03T12:57:08.791Z,101765.53
2022-12-03T12:59:36.752Z,101751.69
2022-12-03T13:02:20.323Z,101753.53
2022-12-03T13:04:48.587Z,101746.63
2022-12-03T13:07:16.783Z,101745.72
2022-12-03T13:09:44.703Z,101746.63
2022-12-03T13:12:21.317Z,101745.75
2022-12-03T13:14:50.458Z,101744.06
2022-12-03T13:17:24.253Z,101745.75
2022-12-03T13:20:03.694Z,101743.09
2022-12-03T13:22:35.398Z,101743.13
2022-12-03T13:25:50.891Z,101739.56
2022-12-03T13:28:16.781Z,101735.19
2022-12-03T13:30:44.578Z,101737.88
2022-12-03T13:33:15.930Z,101735.34
2022-12-03T13:35:43.950Z,101734.47
2022-12-03T13:38:14.734Z,101732.84
2022-12-03T13:40:43.112Z,101730.94
2022-12-03T13:43:13.624Z,101736.00
2022-12-03T13:45:44.922Z,101729.97
2022-12-03T13:48:22.441Z,101725.72
2022-12-03T13:50:50.941Z,101728.31
2022-12-03T13:53:22.567Z,101736.13
2022-12-03T13:55:52.193Z,101731.78
2022-12-03T13:58:20.066Z,101730.03
2022-12-03T14:00:49.342Z,101725.72
2022-12-03T14:03:17.580Z,101725.53
2022-12-03T14:05:45.408Z,101732.56
2022-12-03T14:08:13.377Z,101734.22
2022-12-03T14:10:41.344Z,101736.00
2022-12-03T14:13:09.207Z,101729.94
2022-12-03T14:15:37.070Z,101736.84
2022-12-03T14:18:06.303Z,101730.81
2022-12-03T14:20:34.911Z,101738.41
2022-12-03T14:23:02.729Z,101729.94
2022-12-03T14:25:30.514Z,101734.28
2022-12-03T14:27:58.361Z,101735.38
2022-12-03T14:30:26.539Z,101726.03
2022-12-03T14:32:54.405Z,101734.66
2022-12-03T14:35:23.789Z,101730.41
2022-12-03T14:37:51.588Z,101731.22
2022-12-03T14:40:21.768Z,101722.59
2022-12-03T14:42:50.397Z,101723.41
2022-12-03T14:45:18.196Z,101727.72
2022-12-03T14:47:46.001Z,101727.66
2022-12-03T14:50:14.411Z,101725.97
2022-12-03T14:52:43.828Z,101729.38
2022-12-03T14:55:11.848Z,101730.19
2022-12-03T14:57:40.228Z,101732.72
2022-12-03T15:00:09.364Z,101734.47
2022-12-03T15:02:37.476Z,101732.75
2022-12-03T15:05:05.677Z,101731.94
2022-12-03T15:07:34.524Z,101736.97
2022-12-03T15:10:03.868Z,101737.81
2022-12-03T15:12:31.713Z,101731.00
2022-12-03T15:14:59.625Z,101743.88
2022-12-03T15:17:31.726Z,101737.84
2022-12-03T15:20:00.239Z,101737.88
2022-12-03T15:22:27.994Z,101737.84
2022-12-03T15:24:55.818Z,101740.47
2022-12-03T15:27:24.984Z,101738.78
2022-12-03T15:29:53.147Z,101742.22
2022-12-03T15:32:22.317Z,101741.31
2022-12-03T15:34:51.242Z,101745.63
2022-12-03T15:37:19.132Z,101734.47
2022-12-03T15:39:52.368Z,101736.22
2022-12-03T15:42:20.533Z,101736.19
2022-12-03T15:44:49.887Z,101729.28
2022-12-03T15:47:17.648Z,101736.22
2022-12-03T15:49:45.473Z,101727.53
2022-12-03T15:52:13.403Z,101729.28
2022-12-03T15:54:41.201Z,101726.69
2022-12-03T15:57:09.069Z,101729.22
2022-12-03T15:59:36.858Z,101726.66
2022-12-03T16:02:06.249Z,101725.00
2022-12-03T16:04:34.455Z,101727.59
2022-12-03T16:07:02.254Z,101729.28
2022-12-03T16:09:30.419Z,101727.56
2022-12-03T16:11:58.326Z,101729.34
2022-12-03T16:14:26.179Z,101728.44
2022-12-03T16:16:55.148Z,101719.81
2022-12-03T16:19:24.253Z,101721.59
2022-12-03T16:21:52.080Z,101716.44
2022-12-03T16:24:20.098Z,101716.38
2022-12-03T16:26:48.017Z,101718.16
2022-12-03T16:29:15.786Z,101715.63
2022-12-03T16:31:43.685Z,101724.19
2022-12-03T16:34:11.563Z,101713.03
2022-12-03T16:36:40.972Z,101715.56
2022-12-03T16:39:08.772Z,101722.50
2022-12-03T16:41:36.583Z,101714.75
2022-12-03T16:44:04.770Z,101717.31
2022-12-03T16:46:32.985Z,101721.59
2022-12-03T16:49:00.909Z,101716.41
2022-12-03T16:51:30.189Z,101718.94
2022-12-03T16:53:59.387Z,101724.94
2022-12-03T16:56:27.393Z,101719.75
2022-12-03T16:58:55.210Z,101727.50
2022-12-03T17:01:23.425Z,101720.72
2022-12-03T17:03:51.401Z,101721.59
2022-12-03T17:06:19.313Z,101719.91
2022-12-03T17:08:49.659Z,101719.06
2022-12-03T17:11:19.437Z,101716.50
2022-12-03T17:13:47.745Z,101722.47
2022-12-03T17:16:15.635Z,101720.72
2022-12-03T17:18:43.725Z,101718.13
2022-12-03T17:21:11.609Z,101715.59
2022-12-03T17:23:39.443Z,101713.91
2022-12-03T17:26:07.363Z,101714.84
2022-12-03T17:28:36.654Z,101713.06
2022-12-03T17:31:04.642Z,101714.75
2022-12-03T17:33:32.618Z,101720.72
2022-12-03T17:36:01.312Z,101713.88
2022-12-03T17:38:34.014Z,101710.44
2022-12-03T17:41:05.169Z,101707.88
2022-12-03T17:43:32.966Z,101701.00
2022-12-03T17:46:02.204Z,101708.75
2022-12-03T17:48:31.242Z,101700.94
2022-12-03T17:50:59.202Z,101706.13
2022-12-03T17:53:27.074Z,101701.84
2022-12-03T17:55:54.964Z,101706.19
2022-12-03T17:58:22.817Z,101702.69
2022-12-03T18:00:50.610Z,101703.56
2022-12-03T18:03:20.007Z,101701.84
2022-12-03T18:05:47.862Z,101710.41
2022-12-03T18:08:16.038Z,101705.19
2022-12-03T18:10:43.898Z,101708.69
2022-12-03T18:13:12.067Z,101696.56
2022-12-03T18:15:40.019Z,101710.41
2022-12-03T18:18:08.066Z,101702.66
2022-12-03T18:20:37.380Z,101700.94
2022-12-03T18:23:05.252Z,101702.69
2022-12-03T18:25:33.183Z,101703.56
2022-12-03T18:28:00.945Z,101699.03
2022-12-03T18:30:28.809Z,101704.38
2022-12-03T18:32:56.999Z,101712.03
2022-12-03T18:35:24.903Z,101702.66
2022-12-03T18:37:54.114Z,101707.84
2022-12-03T18:40:23.797Z,101704.38
2022-12-03T18:42:51.924Z,101698.31
2022-12-03T18:45:20.535Z,101700.94
2022-12-03T18:47:48.516Z,101701.81
2022-12-03T18:50:16.412Z,101699.25
2022-12-03T18:52:44.230Z,101694.06
2022-12-03T18:55:16.292Z,101688.09
2022-12-03T18:57:44.165Z,101695.81
2022-12-03T19:00:14.022Z,101692.34
2022-12-03T19:05:30.234Z,101701.81
2022-12-03T19:07:58.437Z,101696.59
2022-12-03T19:10:27.651Z,101701.81
2022-12-03T19:12:55.472Z,101702.66
2022-12-03T19:15:24.021Z,101699.19
2022-12-03T19:17:52.497Z,101700.81
2022-12-03T19:20:20.536Z,101705.22
2022-12-03T19:22:48.416Z,101706.13
2022-12-03T19:25:16.324Z,101702.75
2022-12-03T19:27:46.205Z,101702.81
2022-12-03T19:30:14.561Z,101710.53
2022-12-03T19:32:42.370Z,101703.63
2022-12-03T19:35:11.324Z,101703.63
2022-12-03T19:37:40.915Z,101703.63
2022-12-03T19:40:11.206Z,101701.81
2022-12-03T19:42:39.543Z,101704.44
2022-12-03T19:45:10.100Z,101705.22
2022-12-03T19:47:38.146Z,101704.44
2022-12-03T19:50:07.061Z,101705.31
2022-12-03T19:52:36.944Z,101707.94
2022-12-03T19:55:05.275Z,101705.34
2022-12-03T19:57:33.176Z,101707.00
2022-12-03T20:00:01.099Z,101705.31
2022-12-03T20:02:30.480Z,101702.75
2022-12-03T20:04:58.353Z,101707.03
2022-12-03T20:07:26.423Z,101704.41
2022-12-03T20:09:54.496Z,101704.41
2022-12-03T20:12:22.617Z,101703.59
2022-12-03T20:14:51.568Z,101701.06
2022-12-03T20:17:19.539Z,101701.84
2022-12-03T20:19:48.938Z,101696.69
2022-12-03T20:22:16.780Z,101695.84
2022-12-03T20:24:44.644Z,101699.28
2022-12-03T20:27:12.473Z,101698.44
2022-12-03T20:29:40.713Z,101700.84
2022-12-03T20:32:08.604Z,101707.00
2022-12-03T20:34:36.582Z,101706.09
2022-12-03T20:37:06.300Z,101707.00
2022-12-03T20:39:34.083Z,101711.25
2022-12-03T20:42:01.994Z,101710.28
2022-12-03T20:44:29.908Z,101703.53
2022-12-03T20:46:57.808Z,101708.75
2022-12-03T20:49:25.640Z,101709.50
2022-12-03T20:51:53.458Z,101701.00
2022-12-03T20:54:22.632Z,101702.66
2022-12-03T20:56:50.990Z,101713.06
2022-12-03T20:59:19.272Z,101708.75
2022-12-03T21:01:47.207Z,101702.75
2022-12-03T21:04:16.095Z,101708.78
2022-12-03T21:06:43.937Z,101705.22
2022-12-03T21:09:13.632Z,101708.75
2022-12-03T21:11:43.081Z,101711.28
2022-12-03T21:14:11.942Z,101710.47
2022-12-03T21:19:30.133Z,101706.22
2022-12-03T21:21:57.962Z,101703.53
2022-12-03T21:24:25.826Z,101688.94
2022-12-03T21:26:55.172Z,101696.72
2022-12-03T21:29:23.130Z,101683.00
2022-12-03T21:31:51.105Z,101694.97
2022-12-03T21:34:18.926Z,101696.72
2022-12-03T21:36:46.849Z,101689.00
2022-12-03T21:39:14.827Z,101685.53
2022-12-03T21:42:19.290Z,101690.69
2022-12-03T21:44:32.247Z,101684.69
2022-12-03T21:47:10.665Z,101683.81
2022-12-03T21:49:42.546Z,101681.19
2022-12-03T21:52:10.822Z,101676.03
2022-12-03T21:54:38.658Z,101676.06
2022-12-03T21:57:06.455Z,101680.38
2022-12-03T21:59:35.685Z,101689.84
2022-12-03T22:02:03.762Z,101690.72
2022-12-03T22:04:31.677Z,101693.31
2022-12-03T22:06:59.481Z,101695.91
2022-12-03T22:09:27.343Z,101693.31
2022-12-03T22:11:56.852Z,101682.13
2022-12-03T22:14:24.921Z,101683.84
2022-12-03T22:16:54.125Z,101678.69
2022-12-03T22:19:23.342Z,101668.34
2022-12-03T22:21:51.200Z,101675.22
2022-12-03T22:24:19.496Z,101674.34
2022-12-03T22:26:47.674Z,101682.97
2022-12-03T22:29:16.048Z,101683.88
2022-12-03T22:31:43.874Z,101677.00
2022-12-03T22:34:13.046Z,101680.44
2022-12-03T22:36:40.873Z,101679.56
2022-12-03T22:39:08.810Z,101678.72
2022-12-03T22:41:36.670Z,101677.84
2022-12-03T22:44:04.605Z,101666.66
2022-12-03T22:46:32.805Z,101672.69
2022-12-03T22:49:06.728Z,101672.69
2022-12-03T22:51:36.895Z,101661.47
2022-12-03T22:54:05.435Z,101659.75
2022-12-03T22:56:33.564Z,101659.75
2022-12-03T22:59:03.711Z,101652.88
2022-12-03T23:01:34.563Z,101658.03
2022-12-03T23:04:03.285Z,101660.59
2022-12-03T23:06:31.869Z,101661.47
2022-12-03T23:09:01.284Z,101652.00
2022-12-03T23:11:29.380Z,101653.72
2022-12-03T23:13:58.899Z,101656.28
2022-12-03T23:16:28.861Z,101657.19
2022-12-03T23:18:58.776Z,101650.25
2022-12-03T23:21:30.235Z,101648.53
2022-12-03T23:23:58.590Z,101652.00
2022-12-03T23:26:28.895Z,101643.38
2022-12-03T23:28:57.188Z,101637.34
2022-12-03T23:31:26.839Z,101643.38
2022-12-03T23:33:55.789Z,101636.50
2022-12-03T23:36:25.094Z,101635.63
2022-12-03T23:38:53.359Z,101630.44
2022-12-03T23:41:23.027Z,101632.16
2022-12-03T23:43:52.790Z,101632.16
2022-12-03T23:46:22.270Z,101635.63
2022-12-03T23:48:50.773Z,101636.47
2022-12-03T23:51:20.738Z,101637.34
2022-12-03T23:53:49.218Z,101627.88
2022-12-03T23:56:19.354Z,101634.75
2022-12-03T23:58:47.850Z,101635.56
